sensor_id;sensor_type;location;lat;lon;timestamp;P1;durP1;ratioP1;P2;durP2;ratioP2
2564;SDS011;1292;48.020;7.822;2023-03-31T05:45:43;5.77;;;5.10;;
2564;SDS011;1292;48.020;7.822;2023-03-31T05:48:10;6.47;;;4.80;;
2564;SDS011;1292;48.020;7.822;2023-03-31T05:50:38;7.93;;;4.40;;
2564;SDS011;1292;48.020;7.822;2023-03-31T05:53:06;4.30;;;3.53;;
2564;SDS011;1292;48.020;7.822;2023-03-31T05:55:34;6.67;;;4.23;;
2564;SDS011;1292;48.020;7.822;2023-03-31T05:58:01;6.30;;;4.53;;
2564;SDS011;1292;48.020;7.822;2023-03-31T06:00:28;11.80;;;5.97;;
2564;SDS011;1292;48.020;7.822;2023-03-31T06:02:56;12.43;;;6.03;;
2564;SDS011;1292;48.020;7.822;2023-03-31T06:05:24;9.53;;;5.43;;
2564;SDS011;1292;48.020;7.822;2023-03-31T06:07:51;14.03;;;7.50;;
2564;SDS011;1292;48.020;7.822;2023-03-31T06:10:18;6.73;;;4.03;;
2564;SDS011;1292;48.020;7.822;2023-03-31T06:12:45;8.63;;;5.07;;
2564;SDS011;1292;48.020;7.822;2023-03-31T06:15:12;5.57;;;4.47;;
2564;SDS011;1292;48.020;7.822;2023-03-31T06:17:40;8.17;;;4.83;;
2564;SDS011;1292;48.020;7.822;2023-03-31T06:20:08;4.53;;;4.13;;
2564;SDS011;1292;48.020;7.822;2023-03-31T06:22:35;9.83;;;3.53;;
2564;SDS011;1292;48.020;7.822;2023-03-31T06:25:02;5.00;;;3.10;;
2564;SDS011;1292;48.020;7.822;2023-03-31T06:27:30;5.33;;;3.00;;
2564;SDS011;1292;48.020;7.822;2023-03-31T06:29:57;5.70;;;3.60;;
2564;SDS011;1292;48.020;7.822;2023-03-31T06:32:23;7.70;;;3.60;;
2564;SDS011;1292;48.020;7.822;2023-03-31T06:34:51;5.27;;;3.63;;
2564;SDS011;1292;48.020;7.822;2023-03-31T06:37:19;4.87;;;3.93;;
2564;SDS011;1292;48.020;7.822;2023-03-31T06:39:46;5.70;;;4.00;;
2564;SDS011;1292;48.020;7.822;2023-03-31T06:42:13;4.90;;;4.40;;
2564;SDS011;1292;48.020;7.822;2023-03-31T06:44:40;5.83;;;4.37;;
2564;SDS011;1292;48.020;7.822;2023-03-31T06:47:06;4.53;;;3.23;;
2564;SDS011;1292;48.020;7.822;2023-03-31T06:49:33;3.20;;;2.13;;
2564;SDS011;1292;48.020;7.822;2023-03-31T06:52:00;5.53;;;2.70;;
2564;SDS011;1292;48.020;7.822;2023-03-31T06:54:29;5.30;;;3.10;;
2564;SDS011;1292;48.020;7.822;2023-03-31T06:56:56;4.33;;;3.30;;
2564;SDS011;1292;48.020;7.822;2023-03-31T06:59:23;3.83;;;2.90;;
2564;SDS011;1292;48.020;7.822;2023-03-31T07:01:49;3.40;;;2.37;;
2564;SDS011;1292;48.020;7.822;2023-03-31T07:04:16;4.27;;;2.57;;
2564;SDS011;1292;48.020;7.822;2023-03-31T07:06:43;3.27;;;2.87;;
2564;SDS011;1292;48.020;7.822;2023-03-31T07:09:10;5.40;;;2.10;;
2564;SDS011;1292;48.020;7.822;2023-03-31T07:11:38;4.27;;;3.30;;
2564;SDS011;1292;48.020;7.822;2023-03-31T07:14:05;4.20;;;2.37;;
2564;SDS011;1292;48.020;7.822;2023-03-31T07:16:32;3.20;;;1.57;;
2564;SDS011;1292;48.020;7.822;2023-03-31T07:19:00;1.90;;;1.27;;
2564;SDS011;1292;48.020;7.822;2023-03-31T07:21:28;3.57;;;1.70;;
2564;SDS011;1292;48.020;7.822;2023-03-31T07:23:55;1.93;;;1.00;;
2564;SDS011;1292;48.020;7.822;2023-03-31T07:26:22;1.50;;;1.30;;
2564;SDS011;1292;48.020;7.822;2023-03-31T07:28:51;2.00;;;1.17;;
2564;SDS011;1292;48.020;7.822;2023-03-31T07:31:20;2.50;;;1.53;;
2564;SDS011;1292;48.020;7.822;2023-03-31T07:33:48;1.50;;;1.40;;
2564;SDS011;1292;48.020;7.822;2023-03-31T07:36:15;1.10;;;1.00;;
2564;SDS011;1292;48.020;7.822;2023-03-31T07:38:43;1.50;;;1.30;;
2564;SDS011;1292;48.020;7.822;2023-03-31T07:41:13;1.80;;;1.40;;
2564;SDS011;1292;48.020;7.822;2023-03-31T07:43:42;1.60;;;1.50;;
2564;SDS011;1292;48.020;7.822;2023-03-31T07:46:14;4.50;;;2.07;;
2564;SDS011;1292;48.020;7.822;2023-03-31T07:48:43;1.70;;;1.27;;
2564;SDS011;1292;48.020;7.822;2023-03-31T07:51:11;1.23;;;1.10;;
2564;SDS011;1292;48.020;7.822;2023-03-31T07:53:38;2.13;;;1.27;;
2564;SDS011;1292;48.020;7.822;2023-03-31T07:56:05;1.50;;;1.40;;
2564;SDS011;1292;48.020;7.822;2023-03-31T07:58:32;2.20;;;1.37;;
2564;SDS011;1292;48.020;7.822;2023-03-31T08:00:58;2.00;;;1.57;;
2564;SDS011;1292;48.020;7.822;2023-03-31T08:03:27;2.37;;;1.70;;
2564;SDS011;1292;48.020;7.822;2023-03-31T08:05:56;4.60;;;2.00;;
2564;SDS011;1292;48.020;7.822;2023-03-31T08:08:23;7.17;;;2.17;;
2564;SDS011;1292;48.020;7.822;2023-03-31T08:10:49;3.30;;;2.07;;
2564;SDS011;1292;48.020;7.822;2023-03-31T08:13:16;8.53;;;2.43;;
2564;SDS011;1292;48.020;7.822;2023-03-31T08:15:43;2.47;;;1.53;;
2564;SDS011;1292;48.020;7.822;2023-03-31T08:18:10;3.50;;;1.30;;
2564;SDS011;1292;48.020;7.822;2023-03-31T08:20:38;5.30;;;2.40;;
2564;SDS011;1292;48.020;7.822;2023-03-31T08:23:05;2.63;;;1.53;;
2564;SDS011;1292;48.020;7.822;2023-03-31T08:25:35;5.23;;;1.80;;
2564;SDS011;1292;48.020;7.822;2023-03-31T08:28:02;3.17;;;1.63;;
2564;SDS011;1292;48.020;7.822;2023-03-31T08:30:31;3.40;;;1.43;;
2564;SDS011;1292;48.020;7.822;2023-03-31T08:32:58;1.90;;;1.70;;
2564;SDS011;1292;48.020;7.822;2023-03-31T08:35:25;4.40;;;3.00;;
2564;SDS011;1292;48.020;7.822;2023-03-31T08:37:54;6.50;;;2.07;;
2564;SDS011;1292;48.020;7.822;2023-03-31T08:40:21;2.20;;;1.47;;
2564;SDS011;1292;48.020;7.822;2023-03-31T08:42:52;2.20;;;1.43;;
2564;SDS011;1292;48.020;7.822;2023-03-31T08:45:22;3.30;;;1.57;;
2564;SDS011;1292;48.020;7.822;2023-03-31T08:47:57;4.03;;;1.90;;
2564;SDS011;1292;48.020;7.822;2023-03-31T08:50:28;4.53;;;1.97;;
2564;SDS011;1292;48.020;7.822;2023-03-31T08:53:02;2.67;;;1.50;;
2564;SDS011;1292;48.020;7.822;2023-03-31T08:55:35;5.07;;;1.50;;
2564;SDS011;1292;48.020;7.822;2023-03-31T08:58:12;3.20;;;1.63;;
2564;SDS011;1292;48.020;7.822;2023-03-31T09:00:50;7.03;;;3.17;;
2564;SDS011;1292;48.020;7.822;2023-03-31T09:03:22;5.53;;;1.80;;
2564;SDS011;1292;48.020;7.822;2023-03-31T09:05:55;5.40;;;1.97;;
2564;SDS011;1292;48.020;7.822;2023-03-31T09:08:32;2.93;;;1.30;;
2564;SDS011;1292;48.020;7.822;2023-03-31T09:11:12;3.23;;;1.60;;
2564;SDS011;1292;48.020;7.822;2023-03-31T09:16:42;9.10;;;1.70;;
2564;SDS011;1292;48.020;7.822;2023-03-31T09:19:14;3.03;;;0.97;;
2564;SDS011;1292;48.020;7.822;2023-03-31T09:21:45;4.90;;;2.00;;
2564;SDS011;1292;48.020;7.822;2023-03-31T09:24:18;2.70;;;2.30;;
2564;SDS011;1292;48.020;7.822;2023-03-31T09:26:48;4.20;;;1.00;;
2564;SDS011;1292;48.020;7.822;2023-03-31T09:29:19;4.00;;;1.40;;
2564;SDS011;1292;48.020;7.822;2023-03-31T09:31:51;2.53;;;1.20;;
2564;SDS011;1292;48.020;7.822;2023-03-31T09:34:22;2.50;;;1.03;;
2564;SDS011;1292;48.020;7.822;2023-03-31T09:36:50;3.23;;;1.30;;
2564;SDS011;1292;48.020;7.822;2023-03-31T09:39:19;3.10;;;1.30;;
2564;SDS011;1292;48.020;7.822;2023-03-31T09:41:48;2.13;;;1.20;;
2564;SDS011;1292;48.020;7.822;2023-03-31T09:44:21;2.17;;;1.30;;
2564;SDS011;1292;48.020;7.822;2023-03-31T09:46:52;1.30;;;0.90;;
2564;SDS011;1292;48.020;7.822;2023-03-31T09:49:20;4.00;;;1.07;;
2564;SDS011;1292;48.020;7.822;2023-03-31T09:51:48;2.33;;;1.47;;
2564;SDS011;1292;48.020;7.822;2023-03-31T09:54:27;5.70;;;1.63;;
2564;SDS011;1292;48.020;7.822;2023-03-31T09:56:56;7.93;;;1.90;;
2564;SDS011;1292;48.020;7.822;2023-03-31T09:59:30;9.70;;;1.70;;
2564;SDS011;1292;48.020;7.822;2023-03-31T10:01:59;4.83;;;1.87;;
2564;SDS011;1292;48.020;7.822;2023-03-31T10:04:29;9.50;;;2.30;;
2564;SDS011;1292;48.020;7.822;2023-03-31T10:06:58;5.20;;;1.93;;
2564;SDS011;1292;48.020;7.822;2023-03-31T10:09:28;8.23;;;1.67;;
2564;SDS011;1292;48.020;7.822;2023-03-31T10:11:58;4.97;;;1.57;;
2564;SDS011;1292;48.020;7.822;2023-03-31T10:14:34;6.10;;;1.73;;
2564;SDS011;1292;48.020;7.822;2023-03-31T10:17:05;2.47;;;1.30;;
2564;SDS011;1292;48.020;7.822;2023-03-31T10:19:33;4.80;;;1.30;;
2564;SDS011;1292;48.020;7.822;2023-03-31T10:22:02;4.83;;;1.50;;
2564;SDS011;1292;48.020;7.822;2023-03-31T10:24:38;4.60;;;1.20;;
2564;SDS011;1292;48.020;7.822;2023-03-31T10:27:12;2.97;;;1.47;;
2564;SDS011;1292;48.020;7.822;2023-03-31T10:29:55;6.07;;;1.30;;
2564;SDS011;1292;48.020;7.822;2023-03-31T10:32:37;3.13;;;1.83;;
2564;SDS011;1292;48.020;7.822;2023-03-31T10:35:07;5.20;;;1.23;;
2564;SDS011;1292;48.020;7.822;2023-03-31T10:37:40;3.40;;;1.13;;
2564;SDS011;1292;48.020;7.822;2023-03-31T10:40:13;1.70;;;1.20;;
2564;SDS011;1292;48.020;7.822;2023-03-31T10:42:43;4.60;;;1.90;;
2564;SDS011;1292;48.020;7.822;2023-03-31T10:45:16;2.40;;;1.40;;
2564;SDS011;1292;48.020;7.822;2023-03-31T10:47:51;2.20;;;1.23;;
2564;SDS011;1292;48.020;7.822;2023-03-31T10:50:19;3.30;;;1.50;;
2564;SDS011;1292;48.020;7.822;2023-03-31T10:52:52;6.07;;;1.10;;
2564;SDS011;1292;48.020;7.822;2023-03-31T10:55:31;4.60;;;1.93;;
2564;SDS011;1292;48.020;7.822;2023-03-31T10:58:01;6.87;;;1.60;;
2564;SDS011;1292;48.020;7.822;2023-03-31T11:00:39;1.53;;;1.10;;
2564;SDS011;1292;48.020;7.822;2023-03-31T11:03:22;14.83;;;2.37;;
2564;SDS011;1292;48.020;7.822;2023-03-31T11:06:12;4.77;;;1.33;;
2564;SDS011;1292;48.020;7.822;2023-03-31T11:08:46;5.00;;;1.00;;
2564;SDS011;1292;48.020;7.822;2023-03-31T11:11:24;6.97;;;1.20;;
2564;SDS011;1292;48.020;7.822;2023-03-31T11:14:15;3.70;;;1.17;;
2564;SDS011;1292;48.020;7.822;2023-03-31T11:16:50;1.50;;;1.37;;
2564;SDS011;1292;48.020;7.822;2023-03-31T11:19:27;4.60;;;1.30;;
2564;SDS011;1292;48.020;7.822;2023-03-31T11:22:04;1.70;;;0.80;;
2564;SDS011;1292;48.020;7.822;2023-03-31T11:24:47;1.00;;;0.83;;
2564;SDS011;1292;48.020;7.822;2023-03-31T11:27:40;1.13;;;0.80;;
2564;SDS011;1292;48.020;7.822;2023-03-31T11:30:18;2.63;;;0.73;;
2564;SDS011;1292;48.020;7.822;2023-03-31T11:32:53;1.70;;;1.00;;
2564;SDS011;1292;48.020;7.822;2023-03-31T11:35:36;5.30;;;1.70;;
2564;SDS011;1292;48.020;7.822;2023-03-31T11:38:18;1.80;;;1.03;;
2564;SDS011;1292;48.020;7.822;2023-03-31T11:40:58;6.00;;;1.40;;
2564;SDS011;1292;48.020;7.822;2023-03-31T11:43:30;3.47;;;1.80;;
2564;SDS011;1292;48.020;7.822;2023-03-31T11:46:02;3.07;;;1.97;;
2564;SDS011;1292;48.020;7.822;2023-03-31T11:48:35;2.77;;;1.47;;
2564;SDS011;1292;48.020;7.822;2023-03-31T11:51:08;2.23;;;1.60;;
2564;SDS011;1292;48.020;7.822;2023-03-31T11:53:39;4.50;;;1.37;;
2564;SDS011;1292;48.020;7.822;2023-03-31T11:56:10;4.97;;;1.50;;
2564;SDS011;1292;48.020;7.822;2023-03-31T11:58:40;3.27;;;1.00;;
2564;SDS011;1292;48.020;7.822;2023-03-31T12:01:13;1.17;;;0.97;;
2564;SDS011;1292;48.020;7.822;2023-03-31T12:03:46;2.33;;;1.03;;
2564;SDS011;1292;48.020;7.822;2023-03-31T12:06:24;1.03;;;0.80;;
2564;SDS011;1292;48.020;7.822;2023-03-31T12:09:00;3.90;;;1.30;;
2564;SDS011;1292;48.020;7.822;2023-03-31T12:11:33;2.80;;;1.53;;
2564;SDS011;1292;48.020;7.822;2023-03-31T12:14:12;1.47;;;1.20;;
2564;SDS011;1292;48.020;7.822;2023-03-31T12:16:46;3.17;;;1.30;;
2564;SDS011;1292;48.020;7.822;2023-03-31T12:19:17;2.10;;;1.20;;
2564;SDS011;1292;48.020;7.822;2023-03-31T12:21:48;2.27;;;1.20;;
2564;SDS011;1292;48.020;7.822;2023-03-31T12:24:18;1.57;;;1.10;;
2564;SDS011;1292;48.020;7.822;2023-03-31T12:26:49;2.60;;;1.30;;
2564;SDS011;1292;48.020;7.822;2023-03-31T12:29:27;1.60;;;1.03;;
2564;SDS011;1292;48.020;7.822;2023-03-31T12:31:58;1.23;;;0.73;;
2564;SDS011;1292;48.020;7.822;2023-03-31T12:34:28;2.13;;;1.13;;
2564;SDS011;1292;48.020;7.822;2023-03-31T12:39:53;3.43;;;1.27;;
2564;SDS011;1292;48.020;7.822;2023-03-31T12:42:37;1.47;;;0.90;;
2564;SDS011;1292;48.020;7.822;2023-03-31T12:45:32;3.27;;;1.27;;
2564;SDS011;1292;48.020;7.822;2023-03-31T12:48:10;8.43;;;1.03;;
2564;SDS011;1292;48.020;7.822;2023-03-31T12:50:52;2.00;;;1.00;;
2564;SDS011;1292;48.020;7.822;2023-03-31T12:53:30;6.83;;;1.53;;
2564;SDS011;1292;48.020;7.822;2023-03-31T12:56:04;2.00;;;1.20;;
2564;SDS011;1292;48.020;7.822;2023-03-31T12:58:35;6.53;;;1.50;;
2564;SDS011;1292;48.020;7.822;2023-03-31T13:01:06;3.43;;;1.27;;
2564;SDS011;1292;48.020;7.822;2023-03-31T13:03:45;2.43;;;0.93;;
2564;SDS011;1292;48.020;7.822;2023-03-31T13:12:14;1.90;;;1.13;;
2564;SDS011;1292;48.020;7.822;2023-03-31T13:14:43;9.67;;;1.80;;
2564;SDS011;1292;48.020;7.822;2023-03-31T13:17:21;3.43;;;1.23;;
2564;SDS011;1292;48.020;7.822;2023-03-31T13:19:54;5.13;;;1.37;;
2564;SDS011;1292;48.020;7.822;2023-03-31T13:22:32;1.73;;;1.10;;
2564;SDS011;1292;48.020;7.822;2023-03-31T13:28:08;3.83;;;0.93;;
2564;SDS011;1292;48.020;7.822;2023-03-31T13:30:44;3.90;;;0.60;;
2564;SDS011;1292;48.020;7.822;2023-03-31T13:33:20;5.67;;;1.03;;
2564;SDS011;1292;48.020;7.822;2023-03-31T13:35:52;5.00;;;0.90;;
2564;SDS011;1292;48.020;7.822;2023-03-31T13:38:34;3.30;;;1.20;;
2564;SDS011;1292;48.020;7.822;2023-03-31T13:41:12;1.40;;;0.90;;
2564;SDS011;1292;48.020;7.822;2023-03-31T13:43:52;2.83;;;1.27;;
2564;SDS011;1292;48.020;7.822;2023-03-31T13:46:33;2.30;;;0.90;;
2564;SDS011;1292;48.020;7.822;2023-03-31T13:49:36;3.03;;;1.00;;
2564;SDS011;1292;48.020;7.822;2023-03-31T13:52:12;2.93;;;0.60;;
2564;SDS011;1292;48.020;7.822;2023-03-31T13:54:55;1.90;;;1.03;;
2564;SDS011;1292;48.020;7.822;2023-03-31T13:57:53;2.70;;;1.63;;
2564;SDS011;1292;48.020;7.822;2023-03-31T14:00:45;4.90;;;1.80;;
2564;SDS011;1292;48.020;7.822;2023-03-31T14:03:25;2.27;;;2.07;;
2564;SDS011;1292;48.020;7.822;2023-03-31T14:06:02;1.20;;;1.10;;
2564;SDS011;1292;48.020;7.822;2023-03-31T14:08:35;1.20;;;1.10;;
2564;SDS011;1292;48.020;7.822;2023-03-31T14:11:19;1.73;;;0.80;;
2564;SDS011;1292;48.020;7.822;2023-03-31T14:13:58;1.20;;;0.70;;
2564;SDS011;1292;48.020;7.822;2023-03-31T14:16:25;2.30;;;0.80;;
2564;SDS011;1292;48.020;7.822;2023-03-31T14:18:54;3.37;;;1.03;;
2564;SDS011;1292;48.020;7.822;2023-03-31T14:21:30;1.40;;;1.30;;
2564;SDS011;1292;48.020;7.822;2023-03-31T14:24:07;1.20;;;1.07;;
2564;SDS011;1292;48.020;7.822;2023-03-31T14:26:44;0.83;;;0.70;;
2564;SDS011;1292;48.020;7.822;2023-03-31T14:29:20;3.70;;;1.10;;
2564;SDS011;1292;48.020;7.822;2023-03-31T14:31:57;1.63;;;1.27;;
2564;SDS011;1292;48.020;7.822;2023-03-31T14:34:39;1.43;;;0.90;;
2564;SDS011;1292;48.020;7.822;2023-03-31T14:37:19;1.70;;;1.20;;
2564;SDS011;1292;48.020;7.822;2023-03-31T14:39:47;1.17;;;1.03;;
2564;SDS011;1292;48.020;7.822;2023-03-31T14:42:17;2.00;;;1.80;;
2564;SDS011;1292;48.020;7.822;2023-03-31T14:44:46;1.07;;;0.97;;
2564;SDS011;1292;48.020;7.822;2023-03-31T14:47:14;3.23;;;0.70;;
2564;SDS011;1292;48.020;7.822;2023-03-31T14:49:42;1.57;;;1.03;;
2564;SDS011;1292;48.020;7.822;2023-03-31T14:52:12;3.27;;;0.77;;
2564;SDS011;1292;48.020;7.822;2023-03-31T14:54:44;4.73;;;1.00;;
2564;SDS011;1292;48.020;7.822;2023-03-31T14:57:12;2.30;;;1.00;;
2564;SDS011;1292;48.020;7.822;2023-03-31T14:59:42;1.27;;;0.97;;
2564;SDS011;1292;48.020;7.822;2023-03-31T15:02:12;1.40;;;1.10;;
2564;SDS011;1292;48.020;7.822;2023-03-31T15:04:42;1.57;;;0.73;;
2564;SDS011;1292;48.020;7.822;2023-03-31T15:07:12;1.80;;;1.03;;
2564;SDS011;1292;48.020;7.822;2023-03-31T15:09:42;3.77;;;1.00;;
2564;SDS011;1292;48.020;7.822;2023-03-31T15:12:14;3.90;;;1.47;;
2564;SDS011;1292;48.020;7.822;2023-03-31T15:14:44;1.83;;;0.80;;
2564;SDS011;1292;48.020;7.822;2023-03-31T15:17:19;0.90;;;0.80;;
2564;SDS011;1292;48.020;7.822;2023-03-31T15:19:51;2.60;;;1.10;;
2564;SDS011;1292;48.020;7.822;2023-03-31T15:22:20;1.83;;;0.70;;
2564;SDS011;1292;48.020;7.822;2023-03-31T15:24:51;1.57;;;1.33;;
2564;SDS011;1292;48.020;7.822;2023-03-31T15:27:19;1.60;;;1.23;;
2564;SDS011;1292;48.020;7.822;2023-03-31T15:29:54;2.00;;;1.03;;
2564;SDS011;1292;48.020;7.822;2023-03-31T15:32:24;4.63;;;1.77;;
2564;SDS011;1292;48.020;7.822;2023-03-31T15:34:53;1.50;;;1.17;;
2564;SDS011;1292;48.020;7.822;2023-03-31T15:37:21;1.30;;;1.17;;
2564;SDS011;1292;48.020;7.822;2023-03-31T15:39:53;3.77;;;1.57;;
2564;SDS011;1292;48.020;7.822;2023-03-31T15:42:22;6.03;;;1.33;;
2564;SDS011;1292;48.020;7.822;2023-03-31T15:44:52;6.43;;;1.37;;
2564;SDS011;1292;48.020;7.822;2023-03-31T15:47:20;5.60;;;1.00;;
2564;SDS011;1292;48.020;7.822;2023-03-31T15:49:51;5.93;;;1.60;;
2564;SDS011;1292;48.020;7.822;2023-03-31T15:52:21;3.50;;;1.47;;
2564;SDS011;1292;48.020;7.822;2023-03-31T15:54:54;3.80;;;1.50;;
2564;SDS011;1292;48.020;7.822;2023-03-31T15:57:22;2.37;;;1.30;;
2564;SDS011;1292;48.020;7.822;2023-03-31T15:59:57;1.97;;;1.30;;
2564;SDS011;1292;48.020;7.822;2023-03-31T16:02:25;2.10;;;1.07;;
2564;SDS011;1292;48.020;7.822;2023-03-31T16:04:57;5.67;;;1.50;;
2564;SDS011;1292;48.020;7.822;2023-03-31T16:07:24;2.83;;;0.90;;
2564;SDS011;1292;48.020;7.822;2023-03-31T16:09:55;6.07;;;1.10;;
2564;SDS011;1292;48.020;7.822;2023-03-31T16:12:26;3.60;;;0.93;;
2564;SDS011;1292;48.020;7.822;2023-03-31T16:14:58;4.03;;;1.43;;
2564;SDS011;1292;48.020;7.822;2023-03-31T16:17:30;2.80;;;1.40;;
2564;SDS011;1292;48.020;7.822;2023-03-31T16:20:00;2.07;;;1.33;;
2564;SDS011;1292;48.020;7.822;2023-03-31T16:22:33;4.53;;;1.30;;
2564;SDS011;1292;48.020;7.822;2023-03-31T16:25:08;1.90;;;1.20;;
2564;SDS011;1292;48.020;7.822;2023-03-31T16:27:40;1.10;;;0.80;;
2564;SDS011;1292;48.020;7.822;2023-03-31T16:30:10;3.47;;;1.30;;
2564;SDS011;1292;48.020;7.822;2023-03-31T16:32:38;1.40;;;1.20;;
2564;SDS011;1292;48.020;7.822;2023-03-31T16:35:23;4.07;;;1.37;;
2564;SDS011;1292;48.020;7.822;2023-03-31T16:37:54;2.80;;;1.00;;
2564;SDS011;1292;48.020;7.822;2023-03-31T16:40:22;2.57;;;1.07;;
2564;SDS011;1292;48.020;7.822;2023-03-31T16:45:32;5.33;;;2.57;;
2564;SDS011;1292;48.020;7.822;2023-03-31T16:47:59;2.23;;;0.93;;
2564;SDS011;1292;48.020;7.822;2023-03-31T16:50:25;5.50;;;1.30;;
2564;SDS011;1292;48.020;7.822;2023-03-31T16:52:52;4.77;;;1.30;;
2564;SDS011;1292;48.020;7.822;2023-03-31T16:55:19;2.23;;;1.20;;
2564;SDS011;1292;48.020;7.822;2023-03-31T16:57:47;1.57;;;0.90;;
2564;SDS011;1292;48.020;7.822;2023-03-31T17:00:14;3.57;;;1.20;;
2564;SDS011;1292;48.020;7.822;2023-03-31T17:02:41;1.73;;;1.20;;
2564;SDS011;1292;48.020;7.822;2023-03-31T17:05:08;2.53;;;1.23;;
2564;SDS011;1292;48.020;7.822;2023-03-31T17:07:35;6.73;;;1.63;;
2564;SDS011;1292;48.020;7.822;2023-03-31T17:10:01;2.93;;;0.90;;
2564;SDS011;1292;48.020;7.822;2023-03-31T17:12:29;2.70;;;0.90;;
2564;SDS011;1292;48.020;7.822;2023-03-31T17:14:57;3.80;;;1.30;;
2564;SDS011;1292;48.020;7.822;2023-03-31T17:17:23;2.90;;;1.27;;
2564;SDS011;1292;48.020;7.822;2023-03-31T17:19:51;8.03;;;3.07;;
2564;SDS011;1292;48.020;7.822;2023-03-31T17:22:18;6.23;;;2.33;;
2564;SDS011;1292;48.020;7.822;2023-03-31T17:24:44;1.97;;;1.17;;
2564;SDS011;1292;48.020;7.822;2023-03-31T17:27:12;2.43;;;1.00;;
2564;SDS011;1292;48.020;7.822;2023-03-31T17:29:39;4.37;;;1.10;;
2564;SDS011;1292;48.020;7.822;2023-03-31T17:32:07;1.83;;;1.00;;
2564;SDS011;1292;48.020;7.822;2023-03-31T17:34:37;3.07;;;1.20;;
2564;SDS011;1292;48.020;7.822;2023-03-31T17:37:05;1.93;;;0.97;;
2564;SDS011;1292;48.020;7.822;2023-03-31T17:39:32;2.20;;;1.53;;
2564;SDS011;1292;48.020;7.822;2023-03-31T17:41:58;3.70;;;2.03;;
2564;SDS011;1292;48.020;7.822;2023-03-31T17:44:26;2.63;;;1.70;;
2564;SDS011;1292;48.020;7.822;2023-03-31T17:46:53;2.97;;;1.10;;
2564;SDS011;1292;48.020;7.822;2023-03-31T17:49:22;3.43;;;1.53;;
2564;SDS011;1292;48.020;7.822;2023-03-31T17:51:50;4.00;;;1.30;;
2564;SDS011;1292;48.020;7.822;2023-03-31T17:54:17;9.83;;;2.20;;
2564;SDS011;1292;48.020;7.822;2023-03-31T17:56:43;3.80;;;1.60;;
2564;SDS011;1292;48.020;7.822;2023-03-31T17:59:14;4.23;;;1.33;;
2564;SDS011;1292;48.020;7.822;2023-03-31T18:01:41;2.30;;;1.33;;
2564;SDS011;1292;48.020;7.822;2023-03-31T18:04:07;1.73;;;1.30;;
2564;SDS011;1292;48.020;7.822;2023-03-31T18:06:36;4.03;;;1.80;;
2564;SDS011;1292;48.020;7.822;2023-03-31T18:09:03;3.37;;;1.17;;
2564;SDS011;1292;48.020;7.822;2023-03-31T18:11:30;4.73;;;1.83;;
2564;SDS011;1292;48.020;7.822;2023-03-31T18:13:58;3.33;;;1.70;;
2564;SDS011;1292;48.020;7.822;2023-03-31T18:16:27;4.30;;;1.70;;
2564;SDS011;1292;48.020;7.822;2023-03-31T18:18:55;8.37;;;2.27;;
2564;SDS011;1292;48.020;7.822;2023-03-31T18:21:22;3.77;;;1.87;;
2564;SDS011;1292;48.020;7.822;2023-03-31T18:23:52;24.60;;;14.63;;
2564;SDS011;1292;48.020;7.822;2023-03-31T18:26:20;7.53;;;4.10;;
2564;SDS011;1292;48.020;7.822;2023-03-31T18:28:51;5.93;;;3.73;;
2564;SDS011;1292;48.020;7.822;2023-03-31T18:31:18;2.90;;;2.17;;
2564;SDS011;1292;48.020;7.822;2023-03-31T18:33:46;2.27;;;1.63;;
2564;SDS011;1292;48.020;7.822;2023-03-31T18:36:14;3.30;;;1.70;;
2564;SDS011;1292;48.020;7.822;2023-03-31T18:38:44;2.50;;;1.67;;
2564;SDS011;1292;48.020;7.822;2023-03-31T18:41:13;5.57;;;1.53;;
2564;SDS011;1292;48.020;7.822;2023-03-31T18:43:41;6.50;;;2.70;;
2564;SDS011;1292;48.020;7.822;2023-03-31T18:46:09;6.10;;;1.60;;
2564;SDS011;1292;48.020;7.822;2023-03-31T18:48:36;2.40;;;1.47;;
2564;SDS011;1292;48.020;7.822;2023-03-31T18:51:04;5.10;;;1.40;;
2564;SDS011;1292;48.020;7.822;2023-03-31T18:53:32;3.43;;;1.90;;
2564;SDS011;1292;48.020;7.822;2023-03-31T18:56:00;3.33;;;1.70;;
2564;SDS011;1292;48.020;7.822;2023-03-31T18:58:28;3.67;;;2.97;;
2564;SDS011;1292;48.020;7.822;2023-03-31T19:00:56;5.20;;;2.40;;
2564;SDS011;1292;48.020;7.822;2023-03-31T19:03:25;2.70;;;2.20;;
2564;SDS011;1292;48.020;7.822;2023-03-31T19:05:58;3.50;;;1.87;;
2564;SDS011;1292;48.020;7.822;2023-03-31T19:08:27;4.10;;;3.03;;
2564;SDS011;1292;48.020;7.822;2023-03-31T19:11:03;2.50;;;1.97;;
2564;SDS011;1292;48.020;7.822;2023-03-31T19:13:33;8.90;;;3.13;;
2564;SDS011;1292;48.020;7.822;2023-03-31T19:16:01;6.63;;;2.47;;
2564;SDS011;1292;48.020;7.822;2023-03-31T19:18:28;3.60;;;1.97;;
2564;SDS011;1292;48.020;7.822;2023-03-31T19:20:56;9.50;;;1.97;;
2564;SDS011;1292;48.020;7.822;2023-03-31T19:23:25;5.20;;;2.20;;
2564;SDS011;1292;48.020;7.822;2023-03-31T19:25:53;2.17;;;1.97;;
2564;SDS011;1292;48.020;7.822;2023-03-31T19:28:22;6.20;;;1.80;;
2564;SDS011;1292;48.020;7.822;2023-03-31T19:30:53;2.77;;;1.33;;
2564;SDS011;1292;48.020;7.822;2023-03-31T19:33:22;2.30;;;1.57;;
2564;SDS011;1292;48.020;7.822;2023-03-31T19:35:51;6.43;;;1.63;;
2564;SDS011;1292;48.020;7.822;2023-03-31T19:38:19;4.23;;;1.50;;
2564;SDS011;1292;48.020;7.822;2023-03-31T19:40:47;2.43;;;1.30;;
2564;SDS011;1292;48.020;7.822;2023-03-31T19:43:16;1.80;;;1.03;;
2564;SDS011;1292;48.020;7.822;2023-03-31T19:45:45;1.00;;;0.83;;
2564;SDS011;1292;48.020;7.822;2023-03-31T19:48:14;1.63;;;0.70;;
2564;SDS011;1292;48.020;7.822;2023-03-31T19:50:44;4.30;;;0.90;;
2564;SDS011;1292;48.020;7.822;2023-03-31T19:53:15;1.83;;;1.10;;
2564;SDS011;1292;48.020;7.822;2023-03-31T19:55:42;9.53;;;1.30;;
2564;SDS011;1292;48.020;7.822;2023-03-31T19:58:10;2.20;;;1.17;;
2564;SDS011;1292;48.020;7.822;2023-03-31T20:00:37;5.57;;;1.83;;
2564;SDS011;1292;48.020;7.822;2023-03-31T20:03:05;4.07;;;1.60;;
2564;SDS011;1292;48.020;7.822;2023-03-31T20:05:34;3.00;;;1.87;;
2564;SDS011;1292;48.020;7.822;2023-03-31T20:08:01;5.90;;;2.40;;
2564;SDS011;1292;48.020;7.822;2023-03-31T20:10:29;3.50;;;1.70;;
2564;SDS011;1292;48.020;7.822;2023-03-31T20:12:56;5.70;;;1.50;;
2564;SDS011;1292;48.020;7.822;2023-03-31T20:15:24;2.87;;;1.33;;
2564;SDS011;1292;48.020;7.822;2023-03-31T20:17:51;2.00;;;1.20;;
2564;SDS011;1292;48.020;7.822;2023-03-31T20:20:20;2.40;;;1.00;;
2564;SDS011;1292;48.020;7.822;2023-03-31T20:22:50;7.90;;;1.87;;
2564;SDS011;1292;48.020;7.822;2023-03-31T20:25:18;3.80;;;1.20;;
2564;SDS011;1292;48.020;7.822;2023-03-31T20:27:46;5.13;;;1.40;;
2564;SDS011;1292;48.020;7.822;2023-03-31T20:30:14;3.43;;;2.17;;
2564;SDS011;1292;48.020;7.822;2023-03-31T20:32:42;3.13;;;1.23;;
2564;SDS011;1292;48.020;7.822;2023-03-31T20:35:10;6.00;;;1.40;;
2564;SDS011;1292;48.020;7.822;2023-03-31T20:37:38;3.00;;;1.60;;
2564;SDS011;1292;48.020;7.822;2023-03-31T20:40:07;2.67;;;1.23;;
2564;SDS011;1292;48.020;7.822;2023-03-31T20:42:36;2.57;;;1.20;;
2564;SDS011;1292;48.020;7.822;2023-03-31T20:45:04;3.67;;;1.30;;
2564;SDS011;1292;48.020;7.822;2023-03-31T20:47:33;1.67;;;1.10;;
2564;SDS011;1292;48.020;7.822;2023-03-31T20:50:00;2.60;;;1.00;;
2564;SDS011;1292;48.020;7.822;2023-03-31T20:52:28;3.30;;;1.10;;
2564;SDS011;1292;48.020;7.822;2023-03-31T20:54:55;4.03;;;1.10;;
2564;SDS011;1292;48.020;7.822;2023-03-31T20:57:24;2.87;;;0.97;;
2564;SDS011;1292;48.020;7.822;2023-03-31T20:59:52;2.00;;;1.33;;
